Terminal Aerodrome Forecast
Issued by NWS Charleston, SC

Home | Current Version | Previous Version | Text Only | Print | Product List | Glossary On
Versions: 1 2 3 4 5 6 7 8 9 10 11 12 13 14 15 16
000
FTUS42 KCHS 190100 AAA
TAFSAV
TAF AMD
KSAV 190101Z 1901/1924 04012KT 6SM -SHRA BR BKN006
      TEMPO 1901/1904 4SM RA SCT012 BKN020
     FM190500 01007KT P6SM SCT004 BKN010
     FM191100 36008KT P6SM BKN015=

USA.gov is the U.S. government's official web portal to all federal, state and local government web resources and services.